sensor_id;sensor_type;location;lat;lon;timestamp;P1;durP1;ratioP1;P2;durP2;ratioP2
70199;SDS011;57587;55.688;37.600;2022-09-09T00:03:57;3.75;;;2.40;;
70199;SDS011;57587;55.688;37.600;2022-09-09T00:06:32;3.90;;;2.23;;
70199;SDS011;57587;55.688;37.600;2022-09-09T00:16:51;4.45;;;2.42;;
70199;SDS011;57587;55.688;37.600;2022-09-09T00:22:23;4.82;;;2.03;;
70199;SDS011;57587;55.688;37.600;2022-09-09T00:24:53;5.10;;;1.90;;
70199;SDS011;57587;55.688;37.600;2022-09-09T00:32:47;5.10;;;2.10;;
70199;SDS011;57587;55.688;37.600;2022-09-09T00:35:18;4.88;;;2.40;;
70199;SDS011;57587;55.688;37.600;2022-09-09T00:37:52;3.88;;;2.40;;
70199;SDS011;57587;55.688;37.600;2022-09-09T00:40:24;4.53;;;2.35;;
70199;SDS011;57587;55.688;37.600;2022-09-09T00:43:02;3.85;;;2.30;;
70199;SDS011;57587;55.688;37.600;2022-09-09T00:48:10;4.88;;;2.55;;
70199;SDS011;57587;55.688;37.600;2022-09-09T00:50:46;4.40;;;2.50;;
70199;SDS011;57587;55.688;37.600;2022-09-09T00:53:30;4.57;;;2.80;;
70199;SDS011;57587;55.688;37.600;2022-09-09T00:56:23;9.20;;;2.63;;
70199;SDS011;57587;55.688;37.600;2022-09-09T00:59:00;4.70;;;2.30;;
70199;SDS011;57587;55.688;37.600;2022-09-09T01:01:38;5.43;;;2.50;;
70199;SDS011;57587;55.688;37.600;2022-09-09T01:04:10;6.85;;;2.58;;
70199;SDS011;57587;55.688;37.600;2022-09-09T01:06:43;4.47;;;2.10;;
70199;SDS011;57587;55.688;37.600;2022-09-09T01:12:09;4.30;;;2.60;;
70199;SDS011;57587;55.688;37.600;2022-09-09T01:17:08;5.15;;;2.60;;
70199;SDS011;57587;55.688;37.600;2022-09-09T01:19:52;4.45;;;2.72;;
70199;SDS011;57587;55.688;37.600;2022-09-09T01:28:05;6.30;;;2.50;;
70199;SDS011;57587;55.688;37.600;2022-09-09T01:30:38;5.32;;;2.58;;
70199;SDS011;57587;55.688;37.600;2022-09-09T01:33:14;3.90;;;2.30;;
70199;SDS011;57587;55.688;37.600;2022-09-09T01:38:35;4.87;;;2.80;;
70199;SDS011;57587;55.688;37.600;2022-09-09T01:41:03;4.68;;;2.40;;
70199;SDS011;57587;55.688;37.600;2022-09-09T01:43:42;6.72;;;2.67;;
70199;SDS011;57587;55.688;37.600;2022-09-09T01:46:10;6.65;;;2.55;;
70199;SDS011;57587;55.688;37.600;2022-09-09T01:48:40;6.10;;;3.00;;
70199;SDS011;57587;55.688;37.600;2022-09-09T01:51:09;3.77;;;2.60;;
70199;SDS011;57587;55.688;37.600;2022-09-09T01:53:39;5.43;;;2.70;;
70199;SDS011;57587;55.688;37.600;2022-09-09T02:06:49;5.53;;;2.58;;
70199;SDS011;57587;55.688;37.600;2022-09-09T02:09:25;6.75;;;2.85;;
70199;SDS011;57587;55.688;37.600;2022-09-09T02:12:02;6.30;;;2.78;;
70199;SDS011;57587;55.688;37.600;2022-09-09T02:14:49;4.95;;;2.85;;
70199;SDS011;57587;55.688;37.600;2022-09-09T02:17:25;5.23;;;2.57;;
70199;SDS011;57587;55.688;37.600;2022-09-09T02:20:08;5.07;;;2.90;;
70199;SDS011;57587;55.688;37.600;2022-09-09T02:22:53;5.65;;;2.92;;
70199;SDS011;57587;55.688;37.600;2022-09-09T02:25:24;4.80;;;2.78;;
70199;SDS011;57587;55.688;37.600;2022-09-09T02:28:04;6.43;;;2.80;;
70199;SDS011;57587;55.688;37.600;2022-09-09T02:30:36;5.57;;;3.07;;
70199;SDS011;57587;55.688;37.600;2022-09-09T02:33:06;7.13;;;2.95;;
70199;SDS011;57587;55.688;37.600;2022-09-09T02:35:42;5.03;;;3.10;;
70199;SDS011;57587;55.688;37.600;2022-09-09T02:38:14;5.28;;;3.33;;
70199;SDS011;57587;55.688;37.600;2022-09-09T02:41:07;3.97;;;2.53;;
70199;SDS011;57587;55.688;37.600;2022-09-09T02:43:35;4.57;;;2.77;;
70199;SDS011;57587;55.688;37.600;2022-09-09T02:49:03;4.95;;;2.85;;
70199;SDS011;57587;55.688;37.600;2022-09-09T02:54:27;7.35;;;3.50;;
70199;SDS011;57587;55.688;37.600;2022-09-09T02:59:50;3.72;;;2.50;;
70199;SDS011;57587;55.688;37.600;2022-09-09T03:06:06;6.88;;;3.47;;
70199;SDS011;57587;55.688;37.600;2022-09-09T03:08:33;4.60;;;2.83;;
70199;SDS011;57587;55.688;37.600;2022-09-09T03:11:00;4.17;;;2.80;;
70199;SDS011;57587;55.688;37.600;2022-09-09T03:13:31;6.30;;;2.90;;
70199;SDS011;57587;55.688;37.600;2022-09-09T03:15:58;7.40;;;3.47;;
70199;SDS011;57587;55.688;37.600;2022-09-09T03:18:28;7.57;;;3.30;;
70199;SDS011;57587;55.688;37.600;2022-09-09T03:20:56;5.97;;;3.47;;
70199;SDS011;57587;55.688;37.600;2022-09-09T03:23:24;5.63;;;3.20;;
70199;SDS011;57587;55.688;37.600;2022-09-09T03:25:51;5.30;;;3.10;;
70199;SDS011;57587;55.688;37.600;2022-09-09T03:28:26;4.65;;;3.17;;
70199;SDS011;57587;55.688;37.600;2022-09-09T03:31:03;5.30;;;2.75;;
70199;SDS011;57587;55.688;37.600;2022-09-09T03:33:37;8.00;;;3.50;;
70199;SDS011;57587;55.688;37.600;2022-09-09T03:36:06;16.97;;;10.80;;
70199;SDS011;57587;55.688;37.600;2022-09-09T03:38:35;15.60;;;7.35;;
70199;SDS011;57587;55.688;37.600;2022-09-09T03:41:02;7.40;;;4.55;;
70199;SDS011;57587;55.688;37.600;2022-09-09T03:43:30;7.25;;;4.15;;
70199;SDS011;57587;55.688;37.600;2022-09-09T03:45:57;8.30;;;3.75;;
70199;SDS011;57587;55.688;37.600;2022-09-09T03:48:26;7.73;;;4.70;;
70199;SDS011;57587;55.688;37.600;2022-09-09T03:50:55;7.43;;;3.97;;
70199;SDS011;57587;55.688;37.600;2022-09-09T03:53:25;9.73;;;4.53;;
70199;SDS011;57587;55.688;37.600;2022-09-09T03:55:53;10.65;;;5.47;;
70199;SDS011;57587;55.688;37.600;2022-09-09T03:58:23;8.20;;;5.00;;
70199;SDS011;57587;55.688;37.600;2022-09-09T04:01:16;12.77;;;7.37;;
70199;SDS011;57587;55.688;37.600;2022-09-09T04:03:45;10.63;;;4.93;;
70199;SDS011;57587;55.688;37.600;2022-09-09T04:06:13;9.48;;;4.28;;
70199;SDS011;57587;55.688;37.600;2022-09-09T04:08:44;9.68;;;5.50;;
70199;SDS011;57587;55.688;37.600;2022-09-09T04:11:13;7.60;;;5.03;;
70199;SDS011;57587;55.688;37.600;2022-09-09T04:13:43;8.85;;;4.60;;
70199;SDS011;57587;55.688;37.600;2022-09-09T04:16:12;12.30;;;7.00;;
70199;SDS011;57587;55.688;37.600;2022-09-09T04:18:42;10.35;;;6.45;;
70199;SDS011;57587;55.688;37.600;2022-09-09T04:24:33;7.57;;;5.25;;
70199;SDS011;57587;55.688;37.600;2022-09-09T04:27:01;12.10;;;5.70;;
70199;SDS011;57587;55.688;37.600;2022-09-09T04:29:30;6.20;;;3.93;;
70199;SDS011;57587;55.688;37.600;2022-09-09T04:31:57;7.53;;;4.38;;
70199;SDS011;57587;55.688;37.600;2022-09-09T04:34:31;6.03;;;3.72;;
70199;SDS011;57587;55.688;37.600;2022-09-09T04:37:00;7.25;;;3.85;;
70199;SDS011;57587;55.688;37.600;2022-09-09T04:39:28;6.07;;;4.78;;
70199;SDS011;57587;55.688;37.600;2022-09-09T04:41:57;7.67;;;4.53;;
70199;SDS011;57587;55.688;37.600;2022-09-09T04:44:25;6.07;;;4.80;;
70199;SDS011;57587;55.688;37.600;2022-09-09T04:46:52;7.63;;;4.60;;
70199;SDS011;57587;55.688;37.600;2022-09-09T04:49:20;6.18;;;4.10;;
70199;SDS011;57587;55.688;37.600;2022-09-09T04:51:51;7.20;;;4.20;;
70199;SDS011;57587;55.688;37.600;2022-09-09T04:54:19;7.93;;;4.00;;
70199;SDS011;57587;55.688;37.600;2022-09-09T04:56:46;8.35;;;6.53;;
70199;SDS011;57587;55.688;37.600;2022-09-09T04:59:13;16.45;;;13.00;;
70199;SDS011;57587;55.688;37.600;2022-09-09T05:01:47;12.50;;;9.63;;
70199;SDS011;57587;55.688;37.600;2022-09-09T05:04:14;17.75;;;15.32;;
70199;SDS011;57587;55.688;37.600;2022-09-09T05:06:42;6.93;;;4.90;;
70199;SDS011;57587;55.688;37.600;2022-09-09T05:09:11;6.10;;;5.00;;
70199;SDS011;57587;55.688;37.600;2022-09-09T05:11:38;5.97;;;4.60;;
70199;SDS011;57587;55.688;37.600;2022-09-09T05:14:10;6.35;;;3.92;;
70199;SDS011;57587;55.688;37.600;2022-09-09T05:16:39;4.75;;;3.88;;
70199;SDS011;57587;55.688;37.600;2022-09-09T05:19:06;6.70;;;3.83;;
70199;SDS011;57587;55.688;37.600;2022-09-09T05:21:46;5.82;;;4.00;;
70199;SDS011;57587;55.688;37.600;2022-09-09T05:24:18;6.53;;;4.03;;
70199;SDS011;57587;55.688;37.600;2022-09-09T05:26:48;4.97;;;4.22;;
70199;SDS011;57587;55.688;37.600;2022-09-09T05:29:16;8.48;;;6.97;;
70199;SDS011;57587;55.688;37.600;2022-09-09T05:31:45;6.73;;;5.17;;
70199;SDS011;57587;55.688;37.600;2022-09-09T05:34:17;10.20;;;8.25;;
70199;SDS011;57587;55.688;37.600;2022-09-09T05:36:45;8.85;;;7.47;;
70199;SDS011;57587;55.688;37.600;2022-09-09T05:39:14;9.82;;;5.97;;
70199;SDS011;57587;55.688;37.600;2022-09-09T05:41:41;5.03;;;4.53;;
70199;SDS011;57587;55.688;37.600;2022-09-09T05:44:08;5.73;;;3.80;;
70199;SDS011;57587;55.688;37.600;2022-09-09T05:46:38;4.15;;;3.75;;
70199;SDS011;57587;55.688;37.600;2022-09-09T05:49:05;5.90;;;4.10;;
70199;SDS011;57587;55.688;37.600;2022-09-09T05:51:34;5.78;;;3.72;;
70199;SDS011;57587;55.688;37.600;2022-09-09T05:54:06;5.88;;;4.00;;
70199;SDS011;57587;55.688;37.600;2022-09-09T05:56:37;4.50;;;4.10;;
70199;SDS011;57587;55.688;37.600;2022-09-09T05:59:06;6.82;;;4.35;;
70199;SDS011;57587;55.688;37.600;2022-09-09T06:01:36;6.95;;;4.35;;
70199;SDS011;57587;55.688;37.600;2022-09-09T06:04:13;4.70;;;4.00;;
70199;SDS011;57587;55.688;37.600;2022-09-09T06:06:44;4.97;;;3.88;;
70199;SDS011;57587;55.688;37.600;2022-09-09T06:09:15;5.70;;;3.90;;
70199;SDS011;57587;55.688;37.600;2022-09-09T06:11:45;5.43;;;3.80;;
70199;SDS011;57587;55.688;37.600;2022-09-09T06:14:13;13.55;;;3.92;;
70199;SDS011;57587;55.688;37.600;2022-09-09T06:16:44;8.07;;;4.45;;
70199;SDS011;57587;55.688;37.600;2022-09-09T06:19:18;5.28;;;3.97;;
70199;SDS011;57587;55.688;37.600;2022-09-09T06:21:48;4.27;;;3.87;;
70199;SDS011;57587;55.688;37.600;2022-09-09T06:24:17;5.97;;;4.57;;
70199;SDS011;57587;55.688;37.600;2022-09-09T06:26:46;5.07;;;4.68;;
70199;SDS011;57587;55.688;37.600;2022-09-09T06:29:20;4.68;;;4.28;;
70199;SDS011;57587;55.688;37.600;2022-09-09T06:31:47;10.27;;;4.68;;
70199;SDS011;57587;55.688;37.600;2022-09-09T06:34:19;6.97;;;4.43;;
70199;SDS011;57587;55.688;37.600;2022-09-09T06:36:49;7.43;;;4.75;;
70199;SDS011;57587;55.688;37.600;2022-09-09T06:39:17;4.93;;;4.18;;
70199;SDS011;57587;55.688;37.600;2022-09-09T06:41:45;6.03;;;3.83;;
70199;SDS011;57587;55.688;37.600;2022-09-09T06:44:41;7.60;;;1.77;;
70199;SDS011;57587;55.688;37.600;2022-09-09T06:47:13;2.73;;;1.40;;
70199;SDS011;57587;55.688;37.600;2022-09-09T06:49:41;10.23;;;4.25;;
70199;SDS011;57587;55.688;37.600;2022-09-09T06:52:15;5.40;;;4.90;;
70199;SDS011;57587;55.688;37.600;2022-09-09T06:54:46;3.60;;;1.60;;
70199;SDS011;57587;55.688;37.600;2022-09-09T06:57:16;7.95;;;1.70;;
70199;SDS011;57587;55.688;37.600;2022-09-09T07:00:07;6.50;;;5.27;;
70199;SDS011;57587;55.688;37.600;2022-09-09T07:02:35;8.52;;;6.20;;
70199;SDS011;57587;55.688;37.600;2022-09-09T07:05:06;7.05;;;4.00;;
70199;SDS011;57587;55.688;37.600;2022-09-09T07:07:35;3.35;;;1.58;;
70199;SDS011;57587;55.688;37.600;2022-09-09T07:10:04;3.92;;;1.73;;
70199;SDS011;57587;55.688;37.600;2022-09-09T07:12:35;13.20;;;4.50;;
70199;SDS011;57587;55.688;37.600;2022-09-09T07:15:03;5.13;;;4.30;;
70199;SDS011;57587;55.688;37.600;2022-09-09T07:17:39;5.10;;;4.60;;
70199;SDS011;57587;55.688;37.600;2022-09-09T07:20:06;3.33;;;1.50;;
70199;SDS011;57587;55.688;37.600;2022-09-09T07:22:37;3.97;;;1.15;;
70199;SDS011;57587;55.688;37.600;2022-09-09T07:25:07;3.47;;;1.50;;
70199;SDS011;57587;55.688;37.600;2022-09-09T07:27:36;7.30;;;1.90;;
70199;SDS011;57587;55.688;37.600;2022-09-09T07:30:04;6.45;;;5.72;;
70199;SDS011;57587;55.688;37.600;2022-09-09T07:32:32;11.07;;;4.88;;
70199;SDS011;57587;55.688;37.600;2022-09-09T07:35:08;5.15;;;4.75;;
70199;SDS011;57587;55.688;37.600;2022-09-09T07:37:38;3.93;;;1.87;;
70199;SDS011;57587;55.688;37.600;2022-09-09T07:40:05;2.95;;;1.40;;
70199;SDS011;57587;55.688;37.600;2022-09-09T07:42:33;5.60;;;2.20;;
70199;SDS011;57587;55.688;37.600;2022-09-09T07:45:04;3.13;;;1.67;;
70199;SDS011;57587;55.688;37.600;2022-09-09T07:47:32;5.97;;;5.47;;
70199;SDS011;57587;55.688;37.600;2022-09-09T07:50:02;6.37;;;4.30;;
70199;SDS011;57587;55.688;37.600;2022-09-09T07:52:31;6.57;;;4.43;;
70199;SDS011;57587;55.688;37.600;2022-09-09T07:55:03;6.13;;;5.40;;
70199;SDS011;57587;55.688;37.600;2022-09-09T07:57:31;5.97;;;2.38;;
70199;SDS011;57587;55.688;37.600;2022-09-09T08:00:00;3.03;;;1.60;;
70199;SDS011;57587;55.688;37.600;2022-09-09T08:02:38;4.73;;;1.40;;
70199;SDS011;57587;55.688;37.600;2022-09-09T08:05:06;3.53;;;1.50;;
70199;SDS011;57587;55.688;37.600;2022-09-09T08:07:34;3.67;;;2.10;;
70199;SDS011;57587;55.688;37.600;2022-09-09T08:10:02;3.10;;;1.88;;
70199;SDS011;57587;55.688;37.600;2022-09-09T08:12:42;2.45;;;1.50;;
70199;SDS011;57587;55.688;37.600;2022-09-09T08:15:31;5.47;;;2.00;;
70199;SDS011;57587;55.688;37.600;2022-09-09T08:18:03;4.88;;;1.80;;
70199;SDS011;57587;55.688;37.600;2022-09-09T08:20:31;2.75;;;1.60;;
70199;SDS011;57587;55.688;37.600;2022-09-09T08:22:58;4.90;;;4.40;;
70199;SDS011;57587;55.688;37.600;2022-09-09T08:25:25;6.03;;;5.53;;
70199;SDS011;57587;55.688;37.600;2022-09-09T08:27:52;5.90;;;4.50;;
70199;SDS011;57587;55.688;37.600;2022-09-09T08:30:20;5.53;;;2.80;;
70199;SDS011;57587;55.688;37.600;2022-09-09T08:32:48;8.55;;;3.08;;
70199;SDS011;57587;55.688;37.600;2022-09-09T08:35:21;4.78;;;1.55;;
70199;SDS011;57587;55.688;37.600;2022-09-09T08:37:53;3.05;;;1.70;;
70199;SDS011;57587;55.688;37.600;2022-09-09T08:40:28;3.57;;;1.97;;
70199;SDS011;57587;55.688;37.600;2022-09-09T08:43:05;4.18;;;1.88;;
70199;SDS011;57587;55.688;37.600;2022-09-09T08:45:35;3.47;;;1.75;;
70199;SDS011;57587;55.688;37.600;2022-09-09T08:50:56;5.63;;;5.13;;
70199;SDS011;57587;55.688;37.600;2022-09-09T08:53:41;6.03;;;4.23;;
70199;SDS011;57587;55.688;37.600;2022-09-09T08:56:14;4.43;;;4.07;;
70199;SDS011;57587;55.688;37.600;2022-09-09T08:58:52;5.35;;;3.95;;
70199;SDS011;57587;55.688;37.600;2022-09-09T09:01:39;7.35;;;4.97;;
70199;SDS011;57587;55.688;37.600;2022-09-09T09:04:29;4.07;;;2.78;;
70199;SDS011;57587;55.688;37.600;2022-09-09T09:09:46;6.07;;;1.63;;
70199;SDS011;57587;55.688;37.600;2022-09-09T09:12:18;3.63;;;1.35;;
70199;SDS011;57587;55.688;37.600;2022-09-09T09:14:49;4.30;;;3.90;;
70199;SDS011;57587;55.688;37.600;2022-09-09T09:17:19;3.92;;;3.53;;
70199;SDS011;57587;55.688;37.600;2022-09-09T09:19:51;3.70;;;1.40;;
70199;SDS011;57587;55.688;37.600;2022-09-09T09:22:33;4.47;;;1.88;;
70199;SDS011;57587;55.688;37.600;2022-09-09T09:27:59;4.63;;;1.80;;
70199;SDS011;57587;55.688;37.600;2022-09-09T09:30:29;6.22;;;2.40;;
70199;SDS011;57587;55.688;37.600;2022-09-09T09:36:02;3.30;;;1.98;;
70199;SDS011;57587;55.688;37.600;2022-09-09T09:38:30;5.00;;;4.50;;
70199;SDS011;57587;55.688;37.600;2022-09-09T09:41:28;5.15;;;3.80;;
70199;SDS011;57587;55.688;37.600;2022-09-09T09:43:59;5.47;;;3.28;;
70199;SDS011;57587;55.688;37.600;2022-09-09T09:46:30;4.00;;;3.30;;
70199;SDS011;57587;55.688;37.600;2022-09-09T09:49:08;4.10;;;3.05;;
70199;SDS011;57587;55.688;37.600;2022-09-09T09:51:38;4.05;;;1.92;;
70199;SDS011;57587;55.688;37.600;2022-09-09T09:54:14;3.97;;;2.60;;
70199;SDS011;57587;55.688;37.600;2022-09-09T09:56:47;3.72;;;1.70;;
70199;SDS011;57587;55.688;37.600;2022-09-09T10:02:14;4.07;;;1.80;;
70199;SDS011;57587;55.688;37.600;2022-09-09T10:04:47;3.55;;;1.85;;
70199;SDS011;57587;55.688;37.600;2022-09-09T10:07:19;5.70;;;1.85;;
70199;SDS011;57587;55.688;37.600;2022-09-09T10:09:53;4.82;;;2.28;;
70199;SDS011;57587;55.688;37.600;2022-09-09T10:17:54;4.57;;;2.72;;
70199;SDS011;57587;55.688;37.600;2022-09-09T10:20:46;3.40;;;2.10;;
70199;SDS011;57587;55.688;37.600;2022-09-09T10:23:55;4.55;;;1.77;;
70199;SDS011;57587;55.688;37.600;2022-09-09T10:46:10;6.40;;;2.95;;
70199;SDS011;57587;55.688;37.600;2022-09-09T10:57:17;3.80;;;2.08;;
70199;SDS011;57587;55.688;37.600;2022-09-09T11:00:04;7.03;;;1.80;;
70199;SDS011;57587;55.688;37.600;2022-09-09T11:02:36;2.83;;;1.60;;
70199;SDS011;57587;55.688;37.600;2022-09-09T11:05:04;3.20;;;2.08;;
70199;SDS011;57587;55.688;37.600;2022-09-09T11:07:47;5.22;;;2.33;;
70199;SDS011;57587;55.688;37.600;2022-09-09T11:10:24;5.00;;;1.80;;
70199;SDS011;57587;55.688;37.600;2022-09-09T11:16:41;3.80;;;1.50;;
70199;SDS011;57587;55.688;37.600;2022-09-09T11:22:22;3.25;;;1.73;;
70199;SDS011;57587;55.688;37.600;2022-09-09T11:25:20;6.07;;;2.22;;
70199;SDS011;57587;55.688;37.600;2022-09-09T11:31:04;5.32;;;2.10;;
70199;SDS011;57587;55.688;37.600;2022-09-09T11:42:18;3.90;;;1.92;;
70199;SDS011;57587;55.688;37.600;2022-09-09T11:44:47;3.97;;;2.20;;
70199;SDS011;57587;55.688;37.600;2022-09-09T11:47:19;4.75;;;1.92;;
70199;SDS011;57587;55.688;37.600;2022-09-09T11:49:48;5.03;;;1.65;;
70199;SDS011;57587;55.688;37.600;2022-09-09T11:53:02;4.47;;;1.63;;
70199;SDS011;57587;55.688;37.600;2022-09-09T11:58:00;4.88;;;2.38;;
70199;SDS011;57587;55.688;37.600;2022-09-09T12:08:43;7.43;;;2.25;;
70199;SDS011;57587;55.688;37.600;2022-09-09T12:11:23;6.95;;;2.40;;
70199;SDS011;57587;55.688;37.600;2022-09-09T12:13:53;4.90;;;1.90;;
70199;SDS011;57587;55.688;37.600;2022-09-09T12:16:41;5.75;;;2.20;;
70199;SDS011;57587;55.688;37.600;2022-09-09T12:27:28;4.15;;;2.08;;
70199;SDS011;57587;55.688;37.600;2022-09-09T12:30:02;3.58;;;1.92;;
70199;SDS011;57587;55.688;37.600;2022-09-09T12:32:35;4.78;;;2.30;;
70199;SDS011;57587;55.688;37.600;2022-09-09T12:35:03;3.42;;;1.80;;
70199;SDS011;57587;55.688;37.600;2022-09-09T12:37:41;4.53;;;2.28;;
70199;SDS011;57587;55.688;37.600;2022-09-09T12:40:23;4.45;;;2.00;;
70199;SDS011;57587;55.688;37.600;2022-09-09T12:42:53;3.33;;;1.85;;
70199;SDS011;57587;55.688;37.600;2022-09-09T12:45:26;5.22;;;2.15;;
70199;SDS011;57587;55.688;37.600;2022-09-09T12:48:06;6.28;;;2.05;;
70199;SDS011;57587;55.688;37.600;2022-09-09T12:50:38;4.40;;;2.58;;
70199;SDS011;57587;55.688;37.600;2022-09-09T12:53:15;5.72;;;2.40;;
70199;SDS011;57587;55.688;37.600;2022-09-09T12:55:51;6.32;;;2.05;;
70199;SDS011;57587;55.688;37.600;2022-09-09T12:58:38;7.47;;;2.30;;
70199;SDS011;57587;55.688;37.600;2022-09-09T13:01:17;4.13;;;2.33;;
70199;SDS011;57587;55.688;37.600;2022-09-09T13:03:53;3.95;;;1.90;;
70199;SDS011;57587;55.688;37.600;2022-09-09T13:06:22;5.55;;;2.30;;
70199;SDS011;57587;55.688;37.600;2022-09-09T13:08:56;4.80;;;2.13;;
70199;SDS011;57587;55.688;37.600;2022-09-09T13:11:48;4.43;;;2.20;;
70199;SDS011;57587;55.688;37.600;2022-09-09T13:14:26;4.80;;;2.45;;
70199;SDS011;57587;55.688;37.600;2022-09-09T13:16:58;6.63;;;2.60;;
70199;SDS011;57587;55.688;37.600;2022-09-09T13:19:27;5.63;;;2.85;;
70199;SDS011;57587;55.688;37.600;2022-09-09T13:21:58;11.82;;;2.80;;
70199;SDS011;57587;55.688;37.600;2022-09-09T13:24:31;4.20;;;2.50;;
70199;SDS011;57587;55.688;37.600;2022-09-09T13:27:00;7.63;;;2.50;;
70199;SDS011;57587;55.688;37.600;2022-09-09T13:29:30;7.80;;;2.22;;
70199;SDS011;57587;55.688;37.600;2022-09-09T13:32:04;8.48;;;2.47;;
70199;SDS011;57587;55.688;37.600;2022-09-09T13:34:51;17.23;;;2.90;;
70199;SDS011;57587;55.688;37.600;2022-09-09T13:37:24;9.70;;;2.60;;
70199;SDS011;57587;55.688;37.600;2022-09-09T13:39:56;8.65;;;2.40;;
70199;SDS011;57587;55.688;37.600;2022-09-09T13:42:25;5.75;;;1.92;;
70199;SDS011;57587;55.688;37.600;2022-09-09T13:44:55;6.32;;;1.83;;
70199;SDS011;57587;55.688;37.600;2022-09-09T13:47:29;5.25;;;2.28;;
70199;SDS011;57587;55.688;37.600;2022-09-09T13:50:09;5.00;;;2.10;;
70199;SDS011;57587;55.688;37.600;2022-09-09T13:52:50;6.03;;;2.30;;
70199;SDS011;57587;55.688;37.600;2022-09-09T13:55:20;4.40;;;2.28;;
70199;SDS011;57587;55.688;37.600;2022-09-09T14:00:22;4.60;;;2.50;;
70199;SDS011;57587;55.688;37.600;2022-09-09T14:02:50;4.68;;;2.00;;
70199;SDS011;57587;55.688;37.600;2022-09-09T14:05:18;6.22;;;2.00;;
70199;SDS011;57587;55.688;37.600;2022-09-09T14:07:46;5.07;;;1.83;;
70199;SDS011;57587;55.688;37.600;2022-09-09T14:10:18;7.80;;;2.15;;
70199;SDS011;57587;55.688;37.600;2022-09-09T14:12:45;3.88;;;1.92;;
70199;SDS011;57587;55.688;37.600;2022-09-09T14:15:13;3.38;;;2.05;;
70199;SDS011;57587;55.688;37.600;2022-09-09T14:17:44;4.85;;;2.20;;
70199;SDS011;57587;55.688;37.600;2022-09-09T14:20:11;7.18;;;2.20;;
70199;SDS011;57587;55.688;37.600;2022-09-09T14:22:38;5.05;;;2.15;;
70199;SDS011;57587;55.688;37.600;2022-09-09T14:25:11;4.90;;;2.28;;
70199;SDS011;57587;55.688;37.600;2022-09-09T14:27:40;4.78;;;2.70;;
70199;SDS011;57587;55.688;37.600;2022-09-09T14:30:09;6.47;;;2.20;;
70199;SDS011;57587;55.688;37.600;2022-09-09T14:32:36;4.25;;;2.08;;
70199;SDS011;57587;55.688;37.600;2022-09-09T14:35:03;4.57;;;1.90;;
70199;SDS011;57587;55.688;37.600;2022-09-09T14:37:33;3.90;;;2.00;;
70199;SDS011;57587;55.688;37.600;2022-09-09T14:40:01;3.38;;;2.17;;
70199;SDS011;57587;55.688;37.600;2022-09-09T14:42:28;4.88;;;2.10;;
70199;SDS011;57587;55.688;37.600;2022-09-09T14:44:56;3.53;;;2.00;;
70199;SDS011;57587;55.688;37.600;2022-09-09T14:47:23;4.45;;;2.10;;
70199;SDS011;57587;55.688;37.600;2022-09-09T14:49:50;4.63;;;2.30;;
70199;SDS011;57587;55.688;37.600;2022-09-09T14:52:18;7.30;;;2.75;;
70199;SDS011;57587;55.688;37.600;2022-09-09T14:54:45;7.40;;;2.50;;
70199;SDS011;57587;55.688;37.600;2022-09-09T14:57:12;5.28;;;2.40;;
70199;SDS011;57587;55.688;37.600;2022-09-09T14:59:40;3.83;;;1.90;;
70199;SDS011;57587;55.688;37.600;2022-09-09T15:02:08;3.85;;;1.83;;
70199;SDS011;57587;55.688;37.600;2022-09-09T15:04:36;3.80;;;2.00;;
70199;SDS011;57587;55.688;37.600;2022-09-09T15:07:03;3.95;;;2.20;;
70199;SDS011;57587;55.688;37.600;2022-09-09T15:09:30;3.95;;;2.30;;
70199;SDS011;57587;55.688;37.600;2022-09-09T15:11:57;3.83;;;2.40;;
70199;SDS011;57587;55.688;37.600;2022-09-09T15:14:24;4.57;;;1.98;;
70199;SDS011;57587;55.688;37.600;2022-09-09T15:16:53;5.70;;;2.50;;
70199;SDS011;57587;55.688;37.600;2022-09-09T15:19:22;4.63;;;2.30;;
70199;SDS011;57587;55.688;37.600;2022-09-09T15:21:50;4.63;;;2.50;;
70199;SDS011;57587;55.688;37.600;2022-09-09T15:24:21;6.57;;;3.50;;
70199;SDS011;57587;55.688;37.600;2022-09-09T15:26:48;5.57;;;3.65;;
70199;SDS011;57587;55.688;37.600;2022-09-09T15:29:15;4.50;;;2.75;;
70199;SDS011;57587;55.688;37.600;2022-09-09T15:31:42;6.68;;;3.17;;
70199;SDS011;57587;55.688;37.600;2022-09-09T15:34:09;5.43;;;3.10;;
70199;SDS011;57587;55.688;37.600;2022-09-09T15:36:37;11.30;;;3.45;;
70199;SDS011;57587;55.688;37.600;2022-09-09T15:39:10;9.38;;;3.13;;
70199;SDS011;57587;55.688;37.600;2022-09-09T15:41:42;7.78;;;3.20;;
70199;SDS011;57587;55.688;37.600;2022-09-09T15:44:11;5.10;;;2.92;;
70199;SDS011;57587;55.688;37.600;2022-09-09T15:46:49;4.45;;;2.60;;
70199;SDS011;57587;55.688;37.600;2022-09-09T15:49:19;5.00;;;3.20;;
70199;SDS011;57587;55.688;37.600;2022-09-09T15:51:52;7.45;;;3.35;;
70199;SDS011;57587;55.688;37.600;2022-09-09T15:54:32;9.60;;;3.58;;
70199;SDS011;57587;55.688;37.600;2022-09-09T15:57:06;11.20;;;3.90;;
70199;SDS011;57587;55.688;37.600;2022-09-09T15:59:35;8.80;;;4.70;;
70199;SDS011;57587;55.688;37.600;2022-09-09T16:02:02;16.33;;;5.38;;
70199;SDS011;57587;55.688;37.600;2022-09-09T16:04:31;10.65;;;3.92;;
70199;SDS011;57587;55.688;37.600;2022-09-09T16:07:04;12.02;;;5.43;;
70199;SDS011;57587;55.688;37.600;2022-09-09T16:09:32;9.07;;;3.70;;
70199;SDS011;57587;55.688;37.600;2022-09-09T16:12:02;11.27;;;3.83;;
70199;SDS011;57587;55.688;37.600;2022-09-09T16:14:34;8.57;;;3.10;;
70199;SDS011;57587;55.688;37.600;2022-09-09T16:17:03;13.05;;;4.10;;
70199;SDS011;57587;55.688;37.600;2022-09-09T16:19:31;7.95;;;3.33;;
70199;SDS011;57587;55.688;37.600;2022-09-09T16:21:59;6.38;;;3.67;;
70199;SDS011;57587;55.688;37.600;2022-09-09T16:24:26;6.20;;;3.50;;
70199;SDS011;57587;55.688;37.600;2022-09-09T16:26:54;7.80;;;3.72;;
70199;SDS011;57587;55.688;37.600;2022-09-09T16:29:21;9.70;;;3.78;;
70199;SDS011;57587;55.688;37.600;2022-09-09T16:31:49;7.78;;;3.55;;
70199;SDS011;57587;55.688;37.600;2022-09-09T16:34:20;6.53;;;3.13;;
70199;SDS011;57587;55.688;37.600;2022-09-09T16:36:47;6.88;;;3.17;;
70199;SDS011;57587;55.688;37.600;2022-09-09T16:39:16;8.93;;;3.67;;
70199;SDS011;57587;55.688;37.600;2022-09-09T16:41:46;7.47;;;3.67;;
70199;SDS011;57587;55.688;37.600;2022-09-09T16:44:15;11.60;;;3.53;;
70199;SDS011;57587;55.688;37.600;2022-09-09T16:46:47;6.57;;;3.30;;
70199;SDS011;57587;55.688;37.600;2022-09-09T16:49:23;7.22;;;2.88;;
70199;SDS011;57587;55.688;37.600;2022-09-09T16:51:50;8.63;;;2.80;;
70199;SDS011;57587;55.688;37.600;2022-09-09T16:54:21;8.10;;;3.20;;
70199;SDS011;57587;55.688;37.600;2022-09-09T16:56:49;9.73;;;3.33;;
70199;SDS011;57587;55.688;37.600;2022-09-09T16:59:18;7.68;;;3.03;;
70199;SDS011;57587;55.688;37.600;2022-09-09T17:01:47;6.63;;;2.92;;
70199;SDS011;57587;55.688;37.600;2022-09-09T17:04:21;12.55;;;3.95;;
70199;SDS011;57587;55.688;37.600;2022-09-09T17:06:51;12.85;;;4.75;;
70199;SDS011;57587;55.688;37.600;2022-09-09T17:09:22;9.88;;;3.72;;
70199;SDS011;57587;55.688;37.600;2022-09-09T17:11:54;7.25;;;3.72;;
70199;SDS011;57587;55.688;37.600;2022-09-09T17:14:21;10.75;;;3.58;;
70199;SDS011;57587;55.688;37.600;2022-09-09T17:16:49;8.10;;;3.70;;
70199;SDS011;57587;55.688;37.600;2022-09-09T17:19:16;11.55;;;4.22;;
70199;SDS011;57587;55.688;37.600;2022-09-09T17:21:44;8.43;;;3.70;;
70199;SDS011;57587;55.688;37.600;2022-09-09T17:24:35;7.63;;;3.65;;
70199;SDS011;57587;55.688;37.600;2022-09-09T17:27:05;7.82;;;4.00;;
70199;SDS011;57587;55.688;37.600;2022-09-09T17:29:32;8.43;;;3.73;;
70199;SDS011;57587;55.688;37.600;2022-09-09T17:32:02;8.85;;;4.00;;